Flight Track Log - Related Links

Times and Time Zones

All times are in EDT time to prevent confusion due to time zone crossing. See the VOZ1556 flight status page for this flight to view local times or setup timezone preferences in your user account.

Time Position Orientation Groundspeed Altitude Reporting Facility
EDT Latitude Longitude Course Direction KTS MPH feet Rate Location/Type
Thu 10:41:21 PM -25.3851 152.9252 152° Southeast 258 297 5,500  Level Aus ATC (RADAR)
Thu 10:42:56 PM -25.4890 152.9875 152° Southeast 269 310 10,900 2,865 Climbing Aus ATC (RADAR)
Thu 10:43:56 PM -25.5636 153.0318 152° Southeast 311 358 12,900 2,286 Climbing Aus ATC (RADAR)
Thu 10:44:41 PM -25.6243 153.0684 152° Southeast 333 383 14,900 2,850 Climbing Aus ATC (RADAR)
Thu 10:45:16 PM -25.6714 153.0969 151° Southeast 333 383 16,700 2,682 Climbing Aus ATC (RADAR)
Thu 10:46:06 PM -25.7408 153.1389 151° Southeast 342 394 18,700 2,357 Climbing Aus ATC (RADAR)
Thu 10:47:36 PM -25.8747 153.1907 161° South 344 396 22,200 2,200 Climbing Aus ATC (RADAR)
Thu 10:48:06 PM -25.9209 153.2072 162° South 351 404 23,100 1,467 Climbing Aus ATC (RADAR)
Thu 10:49:06 PM -26.0166 153.2398 163° South 370 426 24,400 1,273 Climbing Aus ATC (RADAR)
Thu 10:49:45 PM -26.0847 153.2635 163° South 386 444 25,200 1,378 Climbing Aus ATC (RADAR)
Thu 10:50:20 PM -26.1457 153.2848 163° South 393 452 26,100 1,500 Climbing Aus ATC (RADAR)
Thu 10:51:05 PM -26.2248 153.3123 163° South 397 457 27,200 1,520 Climbing Aus ATC (RADAR)
Thu 10:51:35 PM -26.2783 153.3310 163° South 403 464 28,000 1,314 Climbing Aus ATC (RADAR)
Thu 10:52:50 PM -26.4133 153.3786 162° South 410 472 29,500 1,200 Climbing Aus ATC (RADAR)
Thu 10:53:30 PM -26.4868 153.4041 163° South 414 476 30,300 1,133 Climbing Aus ATC (RADAR)
Thu 10:54:20 PM -26.5798 153.4364 163° South 420 483 31,200 1,074 Climbing Aus ATC (RADAR)
Thu 10:55:05 PM -26.6640 153.4657 163° South 423 487 32,000 975 Climbing Aus ATC (RADAR)
Thu 10:55:40 PM -26.7302 153.4855 165° South 423 487 32,500 1,200 Climbing Aus ATC (RADAR)
Thu 10:56:30 PM -26.8198 153.4715 188° South 388 447 33,700 1,316 Climbing Aus ATC (RADAR)
Thu 10:58:15 PM -26.9989 153.4305 192° South 371 427 35,900 1,098 Climbing Aus ATC (RADAR)
Thu 10:59:14 PM -27.0992 153.4077 191° South 369 425 36,700 750 Climbing Aus ATC (RADAR)
Thu 10:59:59 PM -27.1742 153.3908 191° South 367 422 37,200 675 Climbing Aus ATC (RADAR)
Thu 11:00:34 PM -27.2332 153.3776 191° South 370 426 37,600 675 Climbing Aus ATC (RADAR)
Thu 11:01:19 PM -27.3081 153.3602 192° South 368 423 38,100 277 Climbing Aus ATC (RADAR)
Thu 11:02:44 PM -27.4419 153.3032 201° Southwest 367 422 38,200 43 Climbing Aus ATC (RADAR)
Thu 11:03:39 PM -27.5243 153.2563 207° Southwest 363 418 38,200  Level Aus ATC (RADAR)
Thu 11:04:14 PM -27.5761 153.2259 208° Southwest 364 419 38,200  Level Aus ATC (RADAR)
Thu 11:05:04 PM -27.6507 153.1827 207° Southwest 364 419 38,200  Level Aus ATC (RADAR)
Thu 11:05:38 PM -27.7029 153.1522 207° Southwest 364 419 38,200  Level Aus ATC (RADAR)
Thu 11:06:23 PM -27.7698 153.1125 208° Southwest 367 422 38,200  Level Aus ATC (RADAR)
Thu 11:07:58 PM -27.9109 153.0296 207° Southwest 364 419 38,200  Level Aus ATC (RADAR)
Thu 11:08:28 PM -27.9553 153.0033 208° Southwest 364 419 38,200  Level Aus ATC (RADAR)
Thu 11:09:28 PM -28.0450 152.9505 207° Southwest 365 420 38,200  Level Aus ATC (RADAR)
Thu 11:10:23 PM -28.1296 152.9066 205° Southwest 367 422 38,200  Level Aus ATC (RADAR)
Thu 11:10:58 PM -28.1854 152.8816 201° Southwest 370 426 38,200  Level Aus ATC (RADAR)
Thu 11:11:48 PM -28.2647 152.8464 201° Southwest 368 423 38,200  Level Aus ATC (RADAR)
Thu 11:13:23 PM -28.4147 152.7794 201° Southwest 366 421 38,200  Level Aus ATC (RADAR)
Thu 11:14:23 PM -28.5091 152.7372 201° Southwest 366 421 38,200  Level Aus ATC (RADAR)
Thu 11:15:08 PM -28.5800 152.7057 201° Southwest 365 420 38,200  Level Aus ATC (RADAR)
Thu 11:15:42 PM -28.6351 152.6811 201° Southwest 365 420 38,200  Level Aus ATC (RADAR)
Thu 11:16:32 PM -28.7138 152.6460 201° Southwest 365 420 38,200  Level Aus ATC (RADAR)
Thu 11:17:52 PM -28.8382 152.5887 202° Southwest 365 420 38,200  Level Aus ATC (RADAR)
Thu 11:18:22 PM -28.8858 152.5684 200° South 364 419 38,200  Level Aus ATC (RADAR)
Thu 11:19:22 PM -28.9788 152.5269 201° Southwest 359 413 38,200  Level Aus ATC (RADAR)
Thu 11:20:02 PM -29.0397 152.4995 201° Southwest 354 407 38,200  Level Aus ATC (RADAR)
Thu 11:20:47 PM -29.1081 152.4687 201° Southwest 353 406 38,200  Level Aus ATC (RADAR)
Thu 11:21:42 PM -29.1915 152.4291 202° Southwest 354 407 38,200  Level Aus ATC (RADAR)
Thu 11:22:22 PM -29.2529 152.4025 201° Southwest 351 404 38,200  Level Aus ATC (RADAR)
Thu 11:23:27 PM -29.3523 152.3577 201° Southwest 359 413 38,200  Level Aus ATC (RADAR)
Thu 11:24:21 PM -29.4353 152.3183 202° Southwest 355 409 38,200  Level Aus ATC (RADAR)
Thu 11:25:11 PM -29.5127 152.2857 200° South 359 413 38,200  Level Aus ATC (RADAR)
Thu 11:25:46 PM -29.5661 152.2611 202° Southwest 355 409 38,200  Level Aus ATC (RADAR)
Thu 11:26:31 PM -29.6346 152.2287 202° Southwest 354 407 38,200  Level Aus ATC (RADAR)
Thu 11:27:36 PM -29.7341 152.1828 202° Southwest 357 411 38,200 -41 Level Aus ATC (RADAR)
Thu 11:28:56 PM -29.8568 152.1267 202° Southwest 356 410 38,100 -55 Descending Aus ATC (RADAR)
Thu 11:29:26 PM -29.9026 152.1054 202° Southwest 356 410 38,100  Level Aus ATC (RADAR)
Thu 11:30:01 PM -29.9565 152.0806 202° Southwest 356 410 38,100  Level Aus ATC (RADAR)
Thu 11:30:46 PM -30.0258 152.0487 202° Southwest 358 412 38,100  Level Aus ATC (RADAR)
Thu 11:31:26 PM -30.0871 152.0196 202° Southwest 357 411 38,100  Level Aus ATC (RADAR)
Thu 11:32:11 PM -30.1566 151.9872 202° Southwest 361 415 38,100  Level Aus ATC (RADAR)
Thu 11:33:50 PM -30.3099 151.9158 202° Southwest 357 411 38,100  Level Aus ATC (RADAR)
Thu 11:34:40 PM -30.3866 151.8804 202° Southwest 357 411 38,100  Level Aus ATC (RADAR)
Thu 11:35:25 PM -30.4557 151.8488 202° Southwest 358 412 38,100  Level Aus ATC (RADAR)
Thu 11:36:00 PM -30.5095 151.8238 202° Southwest 359 413 38,100  Level Aus ATC (RADAR)
Thu 11:36:50 PM -30.5862 151.7880 202° Southwest 358 412 38,100  Level Aus ATC (RADAR)
Thu 11:37:40 PM -30.6630 151.7518 202° Southwest 359 413 38,100  Level Aus ATC (RADAR)
Thu 11:38:50 PM -30.7708 151.7010 202° Southwest 361 415 38,100  Level Aus ATC (RADAR)
Thu 11:39:50 PM -30.8635 151.6582 202° Southwest 359 413 38,100  Level Aus ATC (RADAR)
Thu 11:40:35 PM -30.9327 151.6256 202° Southwest 360 414 38,100  Level Aus ATC (RADAR)
Thu 11:41:10 PM -30.9863 151.6004 202° Southwest 357 411 38,100  Level Aus ATC (RADAR)
Thu 11:41:59 PM -31.0628 151.5637 202° Southwest 358 412 38,100  Level Aus ATC (RADAR)
Thu 11:43:34 PM -31.2083 151.4957 202° Southwest 356 410 38,100  Level Aus ATC (RADAR)
Thu 11:44:24 PM -31.2855 151.4607 201° Southwest 357 411 38,100  Level Aus ATC (RADAR)
Thu 11:44:59 PM -31.3390 151.4352 202° Southwest 356 410 38,100  Level Aus ATC (RADAR)
Thu 11:45:54 PM -31.4231 151.3955 202° Southwest 356 410 38,100  Level Aus ATC (RADAR)
Thu 11:46:29 PM -31.4776 151.3718 200° South 357 411 38,100  Level Aus ATC (RADAR)
Thu 11:47:14 PM -31.5471 151.3407 201° Southwest 357 411 38,100  Level Aus ATC (RADAR)
Thu 11:49:02 PM -31.7120 151.2664 201° Southwest 354 407 38,100 -34 Level Aus ATC (RADAR)
Thu 11:50:09 PM -31.8176 151.2190 201° Southwest 359 413 38,000 -59 Descending Aus ATC (RADAR)
Thu 11:50:44 PM -31.8717 151.1946 201° Southwest 358 412 38,000 82 Level Aus ATC (RADAR)
Thu 11:51:22 PM -31.9285 151.1692 201° Southwest 353 406 38,100 69 Climbing Aus ATC (RADAR)
Thu 11:52:11 PM -32.0053 151.1346 201° Southwest 353 406 38,100  Level Aus ATC (RADAR)
Thu 11:53:48 PM -32.1554 151.0669 201° Southwest 355 409 38,100 -40 Level Aus ATC (RADAR)
Thu 11:54:41 PM -32.2349 151.0321 200° South 351 404 38,000 -133 Descending Aus ATC (RADAR)
Thu 11:55:18 PM -32.2928 151.0055 201° Southwest 352 405 37,900 -2,195 Descending Aus ATC (RADAR)
Thu 11:56:03 PM -32.3613 150.9741 201° Southwest 353 406 35,000 -3,825 Descending Aus ATC (RADAR)
Thu 11:56:38 PM -32.4178 150.9489 201° Southwest 367 422 32,800 -3,225 Descending Aus ATC (RADAR)
Thu 11:57:23 PM -32.4922 150.9196 198° South 372 428 30,700 -2,500 Descending Aus ATC (RADAR)
Thu 11:58:50 PM -32.6509 150.9396 174° South 397 457 27,300 -2,409 Descending Aus ATC (RADAR)
Thu 11:59:40 PM -32.7366 150.9549 171° South 373 429 25,200 -2,329 Descending Aus ATC (RADAR)
Fri 12:00:15 AM -32.7961 150.9652 172° South 371 427 24,000 -2,000 Descending Aus ATC (RADAR)
Fri 12:01:52 AM -32.9644 150.9954 171° South 366 421 20,800 -1,960 Descending Aus ATC (RADAR)
Fri 12:02:45 AM -33.0529 151.0111 172° South 370 426 19,100 -1,945 Descending Aus ATC (RADAR)
Fri 12:04:17 AM -33.2025 151.0375 172° South 341 392 16,100 -1,720 Descending Aus ATC (RADAR)
Fri 12:05:15 AM -33.2935 151.0540 171° South 345 397 14,800 -1,473 Descending Aus ATC (RADAR)
Fri 12:06:07 AM -33.3765 151.0708 170° South 337 388 13,400 -1,761 Descending Aus ATC (RADAR)
Fri 12:06:47 AM -33.4389 151.0824 171° South 331 381 12,100 -1,867 Descending Aus ATC (RADAR)
Fri 12:07:37 AM -33.5161 151.0974 171° South 327 376 10,600 -1,733 Descending Aus ATC (RADAR)
Fri 12:08:17 AM -33.5772 151.1094 171° South 324 373 9,500 -1,245 Descending Aus ATC (RADAR)
Fri 12:10:16 AM -33.7357 151.1894 157° South 283 326 7,300 -1,153 Descending Aus ATC (RADAR)
Fri 12:11:14 AM -33.8055 151.2316 153° Southeast 292 336 6,100 -709 Descending Aus ATC (RADAR)
Fri 12:12:06 AM -33.8686 151.2696 153° Southeast 283 326 6,000 -65 Descending Aus ATC (RADAR)
Fri 12:12:46 AM -33.9166 151.2984 154° Southeast 283 326 6,000  Level Aus ATC (RADAR)
Fri 12:13:24 AM -33.9627 151.3240 155° Southeast 293 337 6,000 -336 Level Aus ATC (RADAR)
Fri 12:14:33 AM -34.0531 151.3483 167° South 283 326 5,400 -865 Descending Aus ATC (RADAR)
Fri 12:15:08 AM -34.0980 151.3603 168° South 283 326 4,500 -1,315 Descending Aus ATC (RADAR)
Fri 12:15:46 AM -34.1399 151.3443 198° South 260 299 3,800 -988 Descending Aus ATC (RADAR)
Fri 12:16:33 AM -34.1506 151.2851 258° West 223 257 3,100 -661 Descending Aus ATC (RADAR)
Fri 12:17:35 AM -34.1063 151.2417 321° Northwest 182 209 2,600 -617 Descending Aus ATC (RADAR)
Fri 12:18:20 AM -34.0763 151.2213 331° Northwest 162 186 2,000 -699 Descending Aus ATC (RADAR)
Fri 12:19:18 AM -34.0397 151.2116 348° North 139 160 1,400 -645 Descending Aus ATC (RADAR)
Fri 12:19:53 AM -34.0181 151.2059 348° North 136 157 1,000 -686 Descending Aus ATC (RADAR)
Fri 12:20:28 AM -33.9980 151.2008 348° North 126 145 600 -659 Descending Aus ATC (RADAR)
Fri 12:21:15 AM -33.9706 151.1939 348° North 125 144 100 -638 Descending Aus ATC (RADAR)

Login

Don't have an account? Register now (free) for customized features, flight alerts, and more!